AirNav   Duncan Aviation - Near you to keep you flying
 
 512 users online  

7WI2 Higgins Airport
Rio, Wisconsin, USA

GOING TO RIO?


FAA INFORMATION EFFECTIVE 26 JANUARY 2023

Location

FAA Identifier: 7WI2
Lat/Long: 43-26-34.9510N 089-10-41.4110W
43-26.582517N 089-10.690183W
43.4430419,-89.1781697
(estimated)
Elevation: 965 ft. / 294 m (estimated)
Variation: 00E (1985)
From city: 3 miles E of RIO, WI
Time zone: UTC -6 (UTC -5 during Daylight Saving Time)
Zip code: 53960

Airport Operations

Airport use: Private use. Permission required prior to landing
Activation date: 01/1989
Control tower: no
ARTCC: CHICAGO CENTER
FSS: GREEN BAY FLIGHT SERVICE STATION
Attendance: UNATNDD
Wind indicator: yes
Segmented circle: no

Airport Communications

WX ASOS at MSN (19 nm S): PHONE 608-249-0615

Nearby radio navigation aids

VOR radial/distance  VOR name  Freq  Var
MSNr019/19.2MADISON VORTAC108.6003E
DLLr101/26.3DELLS VORTAC117.0003E

 
NDB name  Hdg/Dist  Freq  Var  ID
ROCK RIVER310/25.537101WRYV .-. -.-- ...-

Airport Services

Runway Information

Runway 18/36

Dimensions: 2800 x 60 ft. / 853 x 18 m
Surface: turf
RUNWAY 18  RUNWAY 36
Traffic pattern: leftleft
Displaced threshold: 400 ft.
18/36 DSPLCD THRS MKD WITH BLACK & YELLOW 55 GALLON DRUMS.
400 ft.
Obstructions: none20 ft. trees, 800 ft. from runway

Airport Ownership and Management from official FAA records

Ownership: Privately-owned
Owner: FRANK HIGGINS
W-3507 CTY. HY. B
RIO, WI 53960
Phone 920-992-3359
Manager: FRANK & NANCY HIGGINS
W-3507 CTY. HY. B
RIO, WI 53960
Phone 920-992-3359
AMGR LIVES AT ARPT.

Airport Operational Statistics

Aircraft based on the field: 1
Single engine airplanes: 1
    

Additional Remarks

FOR CD CTC CHICAGO ARTCC AT 630-906-8921.

Instrument Procedures

There are no published instrument procedures at 7WI2.

Some nearby airports with instrument procedures:

C47 - Portage Municipal Airport (15 nm NW)
KMSN - Dane County Regional Airport-Truax Field (19 nm S)
87Y - Blackhawk Airfield (20 nm S)
KUNU - Dodge County Airport (21 nm E)
C29 - Middleton Municipal Airport - Morey Field (25 nm SW)
 
Loc | Ops | Rwys | IFR | FBO | Links
Com | Nav | Svcs | Stats | Notes
Area around 7WI2 (Higgins Airport)
 
Road maps at: MapQuest Bing Google
 
Aerial photo
No photo
 
Sectional chart

 
Airport distance calculator
Flying to Higgins Airport? Find the distance to fly.

From to 7WI2

Sunrise and sunset
Times for 27-Jan-2023
 Local
(UTC-6)
 Zulu
(UTC)
Morning civil twilight06:4812:48
Sunrise07:1913:19
Sunset17:0023:00
Evening civil twilight17:3123:31

Current date and time
Zulu (UTC)  27-Jan-2023 10:33:52
Local (UTC-6)  27-Jan-2023 04:33:52
 
METAR
KMSN 
20nm S 
270953Z AUTO 18010KT 10SM CLR M11/M15 A2978 RMK AO2 SLP101 T11111150
KUNU 
21nm E 
271015Z AUTO 16010KT 10SM CLR M12/M14 A2980 RMK AO2 T11201143
KC29 
25nm SW 
271015Z AUTO 18008KT 10SM SCT120 M09/M13 A2976 RMK AO1 T10951130
KRYV 
26nm SE 
271015Z AUTO 17008KT 10SM CLR M13/M16 A2980 RMK AO2 T11261158
KDLL 
26nm W 
271015Z AUTO 19013KT 10SM BKN120 M08/M11 A2969 RMK AO2 T10851107
KC35 
35nm W 
271015Z AUTO 18012G15KT 10SM SCT120 M09/M12 A2969 RMK AO2 T10911125 PWINO
KFLD 
36nm NE 
270953Z AUTO 19011KT 10SM CLR M10/M13 A2978 RMK AO2 SLP098 T11001133
KY50 
36nm N 
270956Z AUTO 16006KT 10SM FEW025 SCT095 M12/M13 A2973 RMK AO2 SLP081 T11221133 FZRANO $
TAF
KMSN 
20nm S 
270628Z 2706/2806 22005KT P6SM SKC FM270700 22010KT P6SM BKN010 FM270900 18012KT P6SM SCT025 BKN120 FM271300 20014G27KT 1 1/2SM -SN OVC020 FM271700 20015G25KT 2SM -SN OVC015 FM271900 23015G23KT P6SM VCSH OVC011 FM280000 28014G24KT P6SM BKN040
NOTAMs
Click for the latest NOTAMs
NOTAMs are issued by the DoD/FAA and will open in a separate window not controlled by AirNav.

 

 
 

Would you like to see your business listed on this page?

 If your business provides an interesting product or service to pilots, flight crews, aircraft, or users of the Higgins Airport, you should consider listing it here.  To start the listing process, click on the button below
 
Add a business
 

Other Pages about Higgins Airport

Update a link
 
Copyright © AirNav, LLC. All rights reserved. Privacy Policy  Contact